Fairmont, WV (26554)

1:18 PM EST on February 27, 2017 (GMT -0500)
East Fairmont | | Change Station

Elev 1004 ft 39.48 °N, 80.13 °W | Updated 7 minutes ago

Rain
Rain
44.3 °F
Feels Like 44 °F
N
1.0
Wind Variable Wind from SW
Gusts 3.0 mph

Today
High -- | Low -- °F
--% Chance of Precip.
Yesterday
High -- | Low -- °F
Precip. -- in
Pressure 30.34 in
Visibility 10.0 miles
Clouds Scattered Clouds 3000 ft
Mostly Cloudy 3600 ft
Overcast 5500 ft
Windchill 44 °F
Dew Point 40 °F
Humidity 84%
Rainfall 0.00 in
Snow Depth Not available.
6:56 AM 6:11 PM
New Moon, 2% visible
METAR KCKB 271753Z 22003KT 10SM -RA SCT030 BKN036 OVC055 07/03 A3033 RMK AO2 RAB00 SLP274 P0000 60000 T00670033 10072 20000 58007
Pressure 30.34 in
Visibility 10.0 miles
Clouds Scattered Clouds 3000 ft
Mostly Cloudy 3600 ft
Overcast 5500 ft
Windchill 44 °F
Dew Point 40 °F
Humidity 84%
Rainfall 0.00 in
Snow Depth Not available.
6:56 AM 6:11 PM
New Moon, 2% visible
METAR KCKB 271753Z 22003KT 10SM -RA SCT030 BKN036 OVC055 07/03 A3033 RMK AO2 RAB00 SLP274 P0000 60000 T00670033 10072 20000 58007

Get Your Daily Forecast Email!

Thanks for signing up!

Be on the lookout for a verification email in your inbox.

You'll start receiving the daily forecast at 8 AM.

×

10-Day Weather Forecast

Almanac

Astronomy

Feb. 27, 2017 Rise Set
Actual Time
Civil Twilight
Nautical Twilight
Astronomical Twilight
Moon
Length of Visible Light
Length of Day
Tomorrow will be .
, % of the Moon is Illuminated

Today's Extremes

State Highs State Lows

Community

WunderPhotos

Upload Photos

1,962,540 photos uploaded!

WunderBlog® & News

Nearby

Air Quality

  Air Quality AQ Index Pollutant
Not available.

Snow Depth

Station Depth Elevation

Earthquake Activity

City Distance Mag. Time & Date
Minimum magnitude displayed is 2.5.

Coastal Water Temperatures

Place Temperature

Stations

Nearby Weather Stations

Station Location Temp. Windchill Dew Point Humidity Wind Precip. Elev Updated Type
                   

Watches & Warnings

There are currently no watches in effect.